Terminal Aerodrome Forecast
Issued by NWS

Home | Current Version | Previous Version | Text Only | Print | Product List | Glossary On
Versions: 1 2 3 4 5 6 7 8 9 10 11 12 13 14
000
FTUS43 KICT 241720
TAFSLN
TAF
KSLN 241720Z 2418/2518 19028G36KT P6SM BKN250
     FM242200 18022KT P6SM BKN250
     FM250100 17014KT P6SM BKN250
     FM250400 16009KT P6SM BKN200 WS020/19040KT
     FM250600 16010KT P6SM OVC200
     FM251700 31009KT P6SM BKN045=

USA.gov is the U.S. government's official web portal to all federal, state and local government web resources and services.